createdAt,value
2022-10-02T00:02:31.417Z,68.09
2022-10-02T00:05:37.060Z,68.49
2022-10-02T00:08:41.503Z,68.81
2022-10-02T00:11:45.526Z,69.05
2022-10-02T00:14:49.190Z,68.65
2022-10-02T00:17:53.415Z,68.79
2022-10-02T00:21:24.612Z,69.14
2022-10-02T00:24:31.595Z,69.49
2022-10-02T00:27:41.579Z,69.05
2022-10-02T00:31:02.919Z,69.26
2022-10-02T00:34:15.141Z,69.63
2022-10-02T00:37:32.953Z,70.01
2022-10-02T00:41:04.750Z,70.08
2022-10-02T00:44:39.649Z,69.94
2022-10-02T00:47:51.003Z,68.66
2022-10-02T00:51:05.567Z,69.27
2022-10-02T00:54:07.927Z,69.38
2022-10-02T00:57:13.257Z,69.62
2022-10-02T01:00:19.447Z,69.46
2022-10-02T01:03:28.664Z,69.86
2022-10-02T01:06:31.284Z,69.89
2022-10-02T01:09:34.051Z,70.36
2022-10-02T01:12:38.055Z,70.82
2022-10-02T01:15:44.495Z,71.20
2022-10-02T01:18:48.085Z,71.47
2022-10-02T01:21:53.350Z,71.73
2022-10-02T01:24:57.051Z,71.96
2022-10-02T01:27:59.795Z,72.36
2022-10-02T01:31:05.128Z,72.49
2022-10-02T01:34:07.883Z,72.71
2022-10-02T01:37:10.863Z,72.95
2022-10-02T01:40:23.372Z,73.04
2022-10-02T01:43:32.048Z,73.27
2022-10-02T01:46:53.462Z,72.96
2022-10-02T01:49:58.920Z,73.21
2022-10-02T01:53:19.571Z,73.25
2022-10-02T01:56:38.111Z,73.31
2022-10-02T01:59:44.020Z,73.40
2022-10-02T02:02:51.229Z,73.55
2022-10-02T02:05:56.216Z,73.66
2022-10-02T02:09:05.088Z,73.88
2022-10-02T02:12:40.296Z,74.01
2022-10-02T02:15:49.295Z,74.33
2022-10-02T02:19:00.212Z,74.54
2022-10-02T02:22:17.475Z,74.86
2022-10-02T02:25:26.203Z,75.25
2022-10-02T02:28:31.000Z,75.55
2022-10-02T02:31:37.325Z,75.66
2022-10-02T02:34:42.947Z,75.23
2022-10-02T02:37:47.788Z,75.89
2022-10-02T02:40:51.335Z,76.36
2022-10-02T02:43:58.507Z,74.52
2022-10-02T02:47:04.080Z,75.62
2022-10-02T02:50:16.865Z,76.16
2022-10-02T02:53:23.372Z,76.10
2022-10-02T02:56:28.325Z,76.18
2022-10-02T02:59:32.312Z,76.29
2022-10-02T03:02:34.873Z,76.36
2022-10-02T03:05:39.228Z,76.37
2022-10-02T03:08:42.058Z,76.51
2022-10-02T03:12:04.927Z,76.70
2022-10-02T03:15:27.236Z,76.93
2022-10-02T03:18:43.003Z,77.02
2022-10-02T03:21:57.582Z,77.23
2022-10-02T03:25:03.863Z,77.13
2022-10-02T03:28:27.224Z,77.12
2022-10-02T03:31:39.805Z,76.81
2022-10-02T03:34:42.375Z,77.08
2022-10-02T03:37:47.691Z,77.42
2022-10-02T03:40:53.009Z,76.81
2022-10-02T03:43:55.503Z,76.52
2022-10-02T03:46:58.028Z,76.73
2022-10-02T03:50:00.459Z,75.79
2022-10-02T03:53:09.914Z,76.19
2022-10-02T03:56:31.418Z,76.62
2022-10-02T03:59:40.042Z,76.93
2022-10-02T04:02:44.573Z,76.88
2022-10-02T04:05:53.321Z,75.78
2022-10-02T04:09:02.891Z,76.43
2022-10-02T04:12:11.368Z,75.74
2022-10-02T04:15:20.610Z,76.39
2022-10-02T04:18:26.694Z,76.59
2022-10-02T04:21:32.075Z,76.30
2022-10-02T04:24:45.694Z,76.42
2022-10-02T04:27:51.270Z,76.55
2022-10-02T04:30:54.036Z,76.36
2022-10-02T04:34:00.827Z,73.77
2022-10-02T04:37:21.843Z,74.80
2022-10-02T04:40:24.662Z,75.47
2022-10-02T04:43:36.855Z,75.82
2022-10-02T04:46:48.438Z,76.00
2022-10-02T04:50:04.330Z,75.16
2022-10-02T04:53:17.038Z,75.51
2022-10-02T04:56:38.365Z,74.69
2022-10-02T04:59:44.004Z,75.41
2022-10-02T05:03:05.298Z,75.93
2022-10-02T05:06:35.530Z,76.24
2022-10-02T05:09:40.189Z,76.34
2022-10-02T05:12:57.758Z,76.33
2022-10-02T05:16:19.025Z,75.92
2022-10-02T05:19:33.809Z,75.90
2022-10-02T05:22:39.083Z,75.92
2022-10-02T05:26:14.332Z,75.30
2022-10-02T05:29:26.277Z,75.39
2022-10-02T05:32:37.138Z,75.34
2022-10-02T05:35:47.686Z,74.63
2022-10-02T05:39:07.902Z,73.73
2022-10-02T05:42:16.222Z,73.35
2022-10-02T05:45:25.419Z,73.45
2022-10-02T05:48:32.570Z,72.74
2022-10-02T05:51:40.349Z,72.49
2022-10-02T05:54:47.083Z,71.30
2022-10-02T05:57:52.610Z,71.73
2022-10-02T06:00:58.698Z,71.29
2022-10-02T06:04:06.198Z,71.25
2022-10-02T06:07:10.315Z,70.07
2022-10-02T06:10:17.752Z,70.32
2022-10-02T06:13:29.308Z,69.43
2022-10-02T06:16:38.462Z,69.25
2022-10-02T06:19:44.986Z,69.20
2022-10-02T06:22:50.687Z,68.78
2022-10-02T06:25:59.338Z,67.99
2022-10-02T06:29:07.649Z,67.82
2022-10-02T06:32:32.044Z,66.59
2022-10-02T06:35:43.373Z,66.59
2022-10-02T06:38:48.734Z,65.61
2022-10-02T06:41:54.595Z,65.01
2022-10-02T06:44:59.640Z,64.19
2022-10-02T06:48:13.257Z,63.60
2022-10-02T06:51:37.583Z,62.45
2022-10-02T06:54:52.519Z,62.64
2022-10-02T06:58:13.558Z,61.90
2022-10-02T07:01:27.689Z,60.66
2022-10-02T07:04:33.101Z,59.18
2022-10-02T07:08:05.166Z,58.63
2022-10-02T07:11:07.311Z,56.81
2022-10-02T07:14:22.110Z,55.62
2022-10-02T07:17:41.318Z,54.62
2022-10-02T07:20:44.011Z,54.25
2022-10-02T07:23:51.950Z,52.14
2022-10-02T07:27:09.271Z,52.92
2022-10-02T07:30:12.676Z,52.46
2022-10-02T07:33:21.293Z,51.24
2022-10-02T07:36:32.766Z,48.74
2022-10-02T07:39:54.356Z,46.94
2022-10-02T07:43:15.559Z,37.56
2022-10-02T07:46:24.049Z,26.61
2022-10-02T07:49:38.244Z,19.21
2022-10-02T07:52:49.135Z,15.28
2022-10-02T07:55:53.240Z,12.82
2022-10-02T07:58:58.481Z,10.55
2022-10-02T08:02:09.193Z,9.61
2022-10-02T08:05:18.145Z,8.95
2022-10-02T08:08:30.412Z,8.59
2022-10-02T08:11:37.175Z,8.26
2022-10-02T08:14:45.412Z,8.74
2022-10-02T08:17:50.347Z,8.00
2022-10-02T08:20:52.670Z,8.03
2022-10-02T08:23:55.374Z,8.95
2022-10-02T08:26:59.307Z,9.94
2022-10-02T08:30:03.909Z,11.52
2022-10-02T08:33:18.002Z,13.51
2022-10-02T08:36:29.876Z,16.18
2022-10-02T08:39:32.052Z,19.02
2022-10-02T08:43:04.188Z,20.20
2022-10-02T08:46:23.583Z,21.61
2022-10-02T08:49:33.862Z,22.89
2022-10-02T08:52:54.831Z,23.35
2022-10-02T08:56:03.133Z,24.02
2022-10-02T08:59:26.041Z,24.24
2022-10-02T09:03:07.243Z,25.01
2022-10-02T09:06:09.448Z,24.95
2022-10-02T09:09:14.998Z,24.86
2022-10-02T09:12:37.942Z,25.03
2022-10-02T09:16:13.334Z,25.24
2022-10-02T09:19:15.558Z,25.07
2022-10-02T09:22:24.418Z,25.89
2022-10-02T09:25:35.898Z,25.91
2022-10-02T09:28:38.562Z,25.79
2022-10-02T09:31:41.153Z,26.12
2022-10-02T09:35:10.051Z,26.65
2022-10-02T09:38:14.129Z,25.79
2022-10-02T09:41:34.936Z,24.29
2022-10-02T09:45:01.590Z,23.42
2022-10-02T09:48:07.094Z,22.67
2022-10-02T09:51:27.863Z,23.16
2022-10-02T09:54:48.693Z,23.66
2022-10-02T09:57:56.771Z,24.64
2022-10-02T10:00:59.654Z,25.16
2022-10-02T10:04:20.644Z,25.66
2022-10-02T10:07:46.135Z,26.04
2022-10-02T10:10:56.231Z,26.11
2022-10-02T10:14:02.020Z,25.94
2022-10-02T10:17:09.255Z,27.43
2022-10-02T10:20:41.317Z,28.03
2022-10-02T10:23:57.893Z,27.25
2022-10-02T10:27:11.282Z,27.57
2022-10-02T10:30:40.247Z,28.43
2022-10-02T10:33:42.612Z,28.17
2022-10-02T10:37:19.424Z,28.74
2022-10-02T10:40:27.637Z,29.41
2022-10-02T10:43:37.564Z,28.81
2022-10-02T10:46:42.719Z,28.04
2022-10-02T10:50:04.130Z,29.01
2022-10-02T10:53:29.620Z,29.61
2022-10-02T10:56:37.157Z,30.86
2022-10-02T10:59:42.552Z,31.55
2022-10-02T11:02:55.136Z,31.95
2022-10-02T11:06:06.980Z,32.50
2022-10-02T11:09:09.481Z,33.36
2022-10-02T11:12:22.955Z,33.61
2022-10-02T11:15:43.277Z,33.64
2022-10-02T11:19:00.887Z,34.44
2022-10-02T11:22:09.805Z,35.03
2022-10-02T11:25:19.502Z,35.42
2022-10-02T11:28:41.725Z,35.08
2022-10-02T11:31:47.063Z,34.88
2022-10-02T11:35:02.001Z,34.74
2022-10-02T11:38:04.479Z,34.49
2022-10-02T11:41:20.810Z,33.17
2022-10-02T11:44:43.468Z,31.73
2022-10-02T11:47:46.776Z,30.64
2022-10-02T11:50:49.503Z,30.54
2022-10-02T11:54:12.590Z,30.78
2022-10-02T11:57:15.141Z,29.88
2022-10-02T12:00:36.042Z,29.62
2022-10-02T12:03:41.851Z,29.65
2022-10-02T12:07:02.045Z,29.67
2022-10-02T12:10:10.908Z,30.39
2022-10-02T12:13:16.077Z,30.95
2022-10-02T12:16:19.327Z,32.10
2022-10-02T12:19:33.721Z,32.39
2022-10-02T12:23:06.446Z,31.37
2022-10-02T12:26:34.445Z,33.16
2022-10-02T12:29:53.464Z,33.21
2022-10-02T12:33:08.223Z,33.21
2022-10-02T12:36:17.616Z,33.13
2022-10-02T12:39:25.971Z,34.43
2022-10-02T12:42:31.751Z,35.46
2022-10-02T12:45:52.799Z,36.46
2022-10-02T12:48:55.555Z,39.06
2022-10-02T12:51:57.864Z,40.74
2022-10-02T12:55:19.403Z,41.44
2022-10-02T12:58:37.047Z,41.74
2022-10-02T13:01:58.729Z,41.99
2022-10-02T13:05:28.815Z,42.29
2022-10-02T13:08:50.406Z,43.82
2022-10-02T13:12:11.929Z,44.60
2022-10-02T13:15:20.423Z,45.43
2022-10-02T13:18:23.064Z,45.62
2022-10-02T13:21:46.917Z,45.40
2022-10-02T13:25:18.143Z,45.70
2022-10-02T13:28:27.875Z,45.38
2022-10-02T13:31:36.797Z,45.67
2022-10-02T13:34:55.018Z,45.10
2022-10-02T13:38:09.896Z,45.68
2022-10-02T13:41:30.890Z,46.30
2022-10-02T13:44:40.875Z,46.72
2022-10-02T13:47:50.763Z,47.72
2022-10-02T13:51:11.911Z,48.33
2022-10-02T13:54:38.299Z,48.81
2022-10-02T13:57:56.691Z,49.28
2022-10-02T14:01:19.251Z,50.80
2022-10-02T14:04:22.612Z,51.44
2022-10-02T14:07:35.624Z,51.06
2022-10-02T14:10:47.556Z,51.02
2022-10-02T14:13:52.868Z,50.83
2022-10-02T14:17:04.953Z,51.72
2022-10-02T14:20:25.929Z,52.00
2022-10-02T14:23:31.402Z,51.46
2022-10-02T14:26:33.790Z,51.21
2022-10-02T14:29:45.760Z,52.07
2022-10-02T14:32:48.165Z,51.98
2022-10-02T14:35:54.128Z,52.64
2022-10-02T14:39:03.454Z,52.67
2022-10-02T14:42:25.951Z,52.18
2022-10-02T14:45:31.568Z,51.94
2022-10-02T14:49:03.071Z,51.88
2022-10-02T14:52:15.472Z,51.98
2022-10-02T14:55:18.877Z,51.99
2022-10-02T14:58:30.259Z,51.92
2022-10-02T15:01:35.092Z,51.95
2022-10-02T15:05:02.292Z,52.75
2022-10-02T15:08:16.112Z,53.12
2022-10-02T15:11:22.692Z,53.71
2022-10-02T15:14:25.334Z,54.20
2022-10-02T15:17:55.467Z,54.38
2022-10-02T15:21:09.517Z,55.05
2022-10-02T15:24:20.524Z,55.50
2022-10-02T15:27:37.433Z,56.27
2022-10-02T15:30:47.339Z,56.50
2022-10-02T15:34:10.711Z,56.94
2022-10-02T15:37:25.786Z,57.27
2022-10-02T15:40:36.686Z,57.63
2022-10-02T15:44:06.829Z,58.21
2022-10-02T15:47:09.347Z,58.51
2022-10-02T15:50:17.513Z,59.07
2022-10-02T15:53:25.803Z,59.25
2022-10-02T15:56:31.263Z,59.45
2022-10-02T15:59:39.508Z,60.02
2022-10-02T16:02:51.344Z,60.62
2022-10-02T16:06:03.691Z,60.72
2022-10-02T16:09:16.349Z,61.16
2022-10-02T16:12:34.071Z,61.54
2022-10-02T16:15:53.112Z,61.78
2022-10-02T16:18:58.655Z,61.91
2022-10-02T16:22:19.837Z,62.73
2022-10-02T16:25:34.417Z,62.98
2022-10-02T16:28:52.161Z,63.34
2022-10-02T16:32:03.306Z,63.83
2022-10-02T16:35:26.015Z,64.01
2022-10-02T16:38:36.903Z,64.19
2022-10-02T16:41:39.300Z,64.44
2022-10-02T16:44:57.225Z,64.29
2022-10-02T16:48:10.403Z,64.49
2022-10-02T16:51:29.676Z,64.12
2022-10-02T16:54:34.769Z,64.39
2022-10-02T16:57:43.410Z,64.17
2022-10-02T17:00:50.594Z,64.52
2022-10-02T17:04:11.741Z,64.82
2022-10-02T17:07:26.158Z,64.47
2022-10-02T17:10:40.369Z,64.46
2022-10-02T17:14:01.793Z,63.90
2022-10-02T17:17:24.834Z,64.11
2022-10-02T17:20:31.410Z,64.61
2022-10-02T17:23:33.870Z,64.94
2022-10-02T17:26:40.855Z,65.03
2022-10-02T17:29:51.335Z,65.14
2022-10-02T17:33:06.984Z,65.55
2022-10-02T17:36:29.151Z,65.90
2022-10-02T17:39:37.715Z,66.07
2022-10-02T17:43:00.228Z,66.39
2022-10-02T17:46:05.545Z,66.35
2022-10-02T17:49:08.099Z,66.22
2022-10-02T17:52:32.687Z,66.31
2022-10-02T17:56:13.731Z,66.39
2022-10-02T17:59:25.769Z,66.28
2022-10-02T18:02:55.073Z,65.13
2022-10-02T18:06:24.195Z,65.45
2022-10-02T18:09:35.691Z,65.87
2022-10-02T18:12:52.917Z,65.22
2022-10-02T18:15:55.100Z,65.56
2022-10-02T18:18:57.820Z,65.79
2022-10-02T18:22:18.999Z,65.80
2022-10-02T18:25:24.569Z,65.15
2022-10-02T18:28:45.357Z,65.41
2022-10-02T18:32:07.154Z,65.37
2022-10-02T18:35:22.053Z,65.48
2022-10-02T18:38:44.966Z,65.65
2022-10-02T18:41:50.259Z,65.21
2022-10-02T18:44:53.042Z,65.51
2022-10-02T18:48:19.764Z,65.47
2022-10-02T18:51:35.051Z,65.69
2022-10-02T18:54:37.366Z,65.86
2022-10-02T18:57:44.171Z,65.83
2022-10-02T19:01:25.293Z,65.88
2022-10-02T19:04:40.407Z,66.12
2022-10-02T19:07:45.635Z,66.28
2022-10-02T19:10:48.371Z,65.91
2022-10-02T19:13:50.605Z,66.46
2022-10-02T19:16:58.669Z,66.17
2022-10-02T19:20:14.219Z,66.54
2022-10-02T19:23:28.334Z,66.69
2022-10-02T19:26:33.206Z,66.44
2022-10-02T19:29:39.314Z,66.19
2022-10-02T19:32:42.340Z,66.45
2022-10-02T19:35:45.060Z,66.82
2022-10-02T19:38:53.478Z,66.86
2022-10-02T19:41:57.804Z,66.42
2022-10-02T19:45:03.056Z,66.76
2022-10-02T19:48:10.260Z,66.42
2022-10-02T19:51:17.287Z,66.16
2022-10-02T19:54:23.197Z,66.49
2022-10-02T19:57:29.941Z,66.74
2022-10-02T20:00:38.369Z,66.66
2022-10-02T20:03:42.412Z,66.55
2022-10-02T20:06:48.446Z,66.68
2022-10-02T20:10:01.032Z,66.68
2022-10-02T20:13:14.210Z,67.03
2022-10-02T20:16:44.465Z,66.72
2022-10-02T20:19:53.017Z,66.98
2022-10-02T20:22:58.809Z,66.42
2022-10-02T20:26:08.259Z,66.42
2022-10-02T20:29:14.551Z,67.03
2022-10-02T20:32:19.663Z,67.60
2022-10-02T20:35:29.854Z,67.49
2022-10-02T20:38:38.003Z,67.59
2022-10-02T20:41:50.250Z,67.71
2022-10-02T20:44:52.747Z,67.61
2022-10-02T20:48:13.852Z,67.37
2022-10-02T20:51:24.635Z,67.43
2022-10-02T20:54:43.682Z,67.68
2022-10-02T20:58:04.947Z,67.72
2022-10-02T21:01:07.526Z,67.59
2022-10-02T21:04:28.856Z,67.76
2022-10-02T21:07:54.248Z,68.19
2022-10-02T21:11:09.247Z,68.30
2022-10-02T21:14:30.547Z,68.52
2022-10-02T21:17:51.727Z,68.42
2022-10-02T21:21:03.233Z,68.58
2022-10-02T21:24:18.833Z,68.80
2022-10-02T21:27:24.331Z,68.75
2022-10-02T21:30:34.141Z,68.90
2022-10-02T21:33:40.442Z,68.98
2022-10-02T21:36:57.549Z,68.91
2022-10-02T21:40:18.831Z,69.14
2022-10-02T21:43:40.064Z,69.20
2022-10-02T21:46:48.582Z,69.08
2022-10-02T21:49:57.361Z,69.04
2022-10-02T21:53:15.179Z,69.17
2022-10-02T21:56:36.665Z,69.26
2022-10-02T21:59:45.033Z,69.40
2022-10-02T22:02:50.458Z,69.08
2022-10-02T22:06:08.054Z,69.40
2022-10-02T22:09:42.822Z,69.87
2022-10-02T22:12:57.342Z,69.85
2022-10-02T22:16:04.810Z,70.31
2022-10-02T22:19:30.199Z,70.48
2022-10-02T22:22:38.559Z,70.55
2022-10-02T22:25:46.969Z,70.71
2022-10-02T22:28:52.654Z,70.77
2022-10-02T22:32:20.034Z,70.96
2022-10-02T22:35:33.596Z,71.31
2022-10-02T22:38:36.105Z,71.42
2022-10-02T22:41:43.041Z,71.74
2022-10-02T22:44:57.924Z,71.64
2022-10-02T22:48:03.428Z,71.51
2022-10-02T22:51:12.086Z,71.56
2022-10-02T22:54:22.054Z,71.93
2022-10-02T22:57:43.154Z,72.17
2022-10-02T23:00:46.268Z,72.20
2022-10-02T23:03:58.192Z,72.38
2022-10-02T23:07:14.103Z,72.12
2022-10-02T23:10:28.558Z,72.34
2022-10-02T23:13:57.177Z,72.47
2022-10-02T23:17:03.327Z,72.39
2022-10-02T23:20:05.869Z,72.26
2022-10-02T23:23:19.516Z,72.54
2022-10-02T23:26:41.251Z,72.45
2022-10-02T23:29:46.752Z,72.43
2022-10-02T23:32:52.284Z,72.24
2022-10-02T23:35:57.655Z,72.77
2022-10-02T23:39:12.887Z,72.59
2022-10-02T23:42:19.298Z,72.38
2022-10-02T23:45:21.688Z,72.33
2022-10-02T23:48:24.558Z,72.61
2022-10-02T23:51:35.639Z,72.96
2022-10-02T23:54:38.112Z,72.65
2022-10-02T23:57:59.592Z,72.44
